createdAt,value
2022-08-22T00:00:15.314Z,1.70
2022-08-22T00:02:42.057Z,1.17
2022-08-22T00:02:48.497Z,0.90
2022-08-22T00:03:06.691Z,1.70
2022-08-22T00:03:07.362Z,1.10
2022-08-22T00:06:10.597Z,1.60
2022-08-22T00:09:14.110Z,1.80
2022-08-22T00:12:00.115Z,1.58
2022-08-22T00:14:54.952Z,1.38
2022-08-22T00:23:19.222Z,1.70
2022-08-22T00:26:15.929Z,1.42
2022-08-22T00:29:29.876Z,1.65
2022-08-22T00:32:26.439Z,1.98
2022-08-22T00:35:06.565Z,1.92
2022-08-22T00:37:41.334Z,2.42
2022-08-22T00:48:40.021Z,1.80
2022-08-22T00:51:36.290Z,2.10
2022-08-22T00:54:39.984Z,1.90
2022-08-22T00:57:30.259Z,1.40
2022-08-22T01:00:24.461Z,1.70
2022-08-22T01:03:21.042Z,2.20
2022-08-22T01:11:42.925Z,1.80
2022-08-22T01:14:35.081Z,1.83
2022-08-22T01:17:15.349Z,2.17
2022-08-22T01:20:11.331Z,1.98
2022-08-22T01:23:00.382Z,1.58
2022-08-22T01:26:23.912Z,1.70
2022-08-22T01:33:54.596Z,1.90
2022-08-22T01:36:55.017Z,2.13
2022-08-22T01:40:16.883Z,1.33
2022-08-22T01:43:10.115Z,1.60
2022-08-22T01:46:02.382Z,1.67
2022-08-22T01:52:02.466Z,1.90
2022-08-22T01:54:55.337Z,1.65
2022-08-22T01:57:24.441Z,1.30
2022-08-22T02:00:00.099Z,1.80
2022-08-22T02:02:46.287Z,1.77
2022-08-22T02:05:40.103Z,1.88
2022-08-22T02:11:50.969Z,1.95
2022-08-22T02:14:40.699Z,2.25
2022-08-22T02:17:34.941Z,2.10
2022-08-22T02:20:14.525Z,2.00
2022-08-22T02:23:03.270Z,1.83
2022-08-22T02:25:51.140Z,1.67
2022-08-22T02:34:43.090Z,1.90
2022-08-22T02:37:15.020Z,1.90
2022-08-22T02:40:22.712Z,1.60
2022-08-22T02:43:01.848Z,1.70
2022-08-22T02:45:45.329Z,1.75
2022-08-22T02:48:34.204Z,2.08
2022-08-22T02:56:33.094Z,1.80
2022-08-22T02:59:38.748Z,2.75
2022-08-22T03:02:40.454Z,1.88
2022-08-22T03:05:26.163Z,1.83
2022-08-22T03:08:09.826Z,1.73
2022-08-22T03:19:55.943Z,1.70
2022-08-22T03:22:28.964Z,1.70
2022-08-22T03:25:09.417Z,1.83
2022-08-22T03:27:40.720Z,2.17
2022-08-22T03:30:20.488Z,1.83
2022-08-22T03:32:59.561Z,1.48
2022-08-22T03:35:34.996Z,1.80
2022-08-22T03:44:05.155Z,1.73
2022-08-22T03:47:00.269Z,2.13
2022-08-22T03:49:59.367Z,1.92
2022-08-22T03:53:04.622Z,1.52
2022-08-22T03:56:14.366Z,1.77
2022-08-22T03:58:42.234Z,1.65
2022-08-22T04:08:25.581Z,1.88
2022-08-22T04:11:33.021Z,2.10
2022-08-22T04:14:19.578Z,2.22
2022-08-22T04:17:11.587Z,2.30
2022-08-22T04:20:10.676Z,1.73
2022-08-22T04:23:05.891Z,1.88
2022-08-22T04:31:25.105Z,2.22
2022-08-22T04:34:04.742Z,1.83
2022-08-22T04:36:45.354Z,1.60
2022-08-22T04:39:51.586Z,2.10
2022-08-22T04:42:33.099Z,2.00
2022-08-22T04:45:07.302Z,1.80
2022-08-22T04:51:02.999Z,1.90
2022-08-22T04:53:50.250Z,2.13
2022-08-22T04:56:55.437Z,1.80
2022-08-22T04:59:25.888Z,2.25
2022-08-22T05:02:06.064Z,2.38
2022-08-22T05:04:46.512Z,1.83
2022-08-22T05:10:16.295Z,2.17
2022-08-22T05:13:00.477Z,2.35
2022-08-22T05:15:35.987Z,2.20
2022-08-22T05:18:15.366Z,2.05
2022-08-22T05:20:50.767Z,1.50
2022-08-22T05:23:30.519Z,1.83
2022-08-22T05:26:02.715Z,1.85
2022-08-22T05:44:54.227Z,1.50
2022-08-22T05:47:23.867Z,1.77
2022-08-22T05:50:15.061Z,1.80
2022-08-22T05:53:06.178Z,1.73
2022-08-22T05:55:44.805Z,1.80
2022-08-22T06:02:05.678Z,1.70
2022-08-22T06:05:05.021Z,1.80
2022-08-22T06:07:44.128Z,2.00
2022-08-22T06:10:51.291Z,1.80
2022-08-22T06:13:37.151Z,1.75
2022-08-22T06:16:22.160Z,1.55
2022-08-22T06:24:10.113Z,1.33
2022-08-22T06:26:48.695Z,1.80
2022-08-22T06:29:30.668Z,2.00
2022-08-22T06:32:03.343Z,2.05
2022-08-22T06:34:40.812Z,1.67
2022-08-22T06:37:24.411Z,1.95
2022-08-22T06:39:55.940Z,1.50
2022-08-22T06:48:14.352Z,1.60
2022-08-22T06:50:45.490Z,1.70
2022-08-22T06:53:19.779Z,1.73
2022-08-22T06:56:03.042Z,1.58
2022-08-22T06:58:42.190Z,2.17
2022-08-22T07:01:31.030Z,1.77
2022-08-22T07:04:10.694Z,2.13
2022-08-22T07:12:11.507Z,1.77
2022-08-22T07:14:46.382Z,2.08
2022-08-22T07:17:35.934Z,1.67
2022-08-22T07:20:22.484Z,1.92
2022-08-22T07:23:01.431Z,1.73
2022-08-22T07:25:31.712Z,1.83
2022-08-22T07:28:31.747Z,1.85
2022-08-22T07:34:15.790Z,1.98
2022-08-22T07:37:20.970Z,1.48
2022-08-22T07:40:11.153Z,1.63
2022-08-22T07:42:51.215Z,2.08
2022-08-22T07:45:36.854Z,1.77
2022-08-22T07:48:26.179Z,1.90
2022-08-22T07:53:43.503Z,1.85
2022-08-22T07:56:35.389Z,2.33
2022-08-22T07:59:22.985Z,2.50
2022-08-22T08:01:55.473Z,2.55
2022-08-22T08:04:40.162Z,2.53
2022-08-22T08:07:14.860Z,2.42
2022-08-22T08:09:51.207Z,1.88
2022-08-22T08:17:32.228Z,1.60
2022-08-22T08:20:11.570Z,1.73
2022-08-22T08:22:44.995Z,1.77
2022-08-22T08:28:10.543Z,1.80
2022-08-22T08:30:41.283Z,1.75
2022-08-22T08:33:25.365Z,1.55
2022-08-22T08:42:07.054Z,1.80
2022-08-22T08:45:05.361Z,1.77
2022-08-22T08:47:45.682Z,1.60
2022-08-22T08:50:31.038Z,1.83
2022-08-22T08:53:34.679Z,1.70
2022-08-22T08:56:27.068Z,1.83
2022-08-22T09:04:29.844Z,1.80
2022-08-22T09:07:21.649Z,1.50
2022-08-22T09:10:27.352Z,1.80
2022-08-22T09:13:16.019Z,2.10
2022-08-22T09:16:05.420Z,1.95
2022-08-22T09:18:34.607Z,1.63
2022-08-22T09:27:01.327Z,2.00
2022-08-22T09:29:54.787Z,1.92
2022-08-22T09:32:50.642Z,1.80
2022-08-22T09:35:43.861Z,2.35
2022-08-22T09:38:47.916Z,1.90
2022-08-22T09:41:27.090Z,1.98
2022-08-22T09:51:31.615Z,1.90
2022-08-22T09:54:36.530Z,2.00
2022-08-22T09:57:35.356Z,2.00
2022-08-22T10:00:07.218Z,2.15
2022-08-22T10:03:15.096Z,2.08
2022-08-22T10:05:51.062Z,1.50
2022-08-22T10:23:55.533Z,2.22
2022-08-22T10:26:38.597Z,1.77
2022-08-22T10:29:26.422Z,3.10
2022-08-22T10:32:10.680Z,2.40
2022-08-22T10:34:50.525Z,2.22
2022-08-22T10:37:45.923Z,2.80
2022-08-22T10:48:55.579Z,2.42
2022-08-22T10:51:43.965Z,3.30
2022-08-22T10:54:20.323Z,2.63
2022-08-22T10:57:07.800Z,2.53
2022-08-22T10:59:41.452Z,2.67
2022-08-22T11:03:01.082Z,3.05
2022-08-22T11:08:57.677Z,2.67
2022-08-22T11:11:44.330Z,2.90
2022-08-22T11:14:28.241Z,2.40
2022-08-22T11:17:31.067Z,2.83
2022-08-22T11:20:15.152Z,2.33
2022-08-22T11:22:51.784Z,2.40
2022-08-22T11:29:23.121Z,2.60
2022-08-22T11:32:17.651Z,2.10
2022-08-22T11:34:47.130Z,2.13
2022-08-22T11:37:42.682Z,2.25
2022-08-22T11:40:15.801Z,2.63
2022-08-22T11:43:18.082Z,2.45
2022-08-22T11:51:57.161Z,1.83
2022-08-22T11:54:51.718Z,1.70
2022-08-22T11:57:37.458Z,2.03
2022-08-22T12:00:37.054Z,2.15
2022-08-22T12:03:30.767Z,2.00
2022-08-22T12:06:37.325Z,2.35
2022-08-22T12:12:34.666Z,2.85
2022-08-22T12:15:18.260Z,2.22
2022-08-22T12:18:21.213Z,1.90
2022-08-22T12:20:57.709Z,1.95
2022-08-22T12:24:06.310Z,2.03
2022-08-22T12:26:57.559Z,1.52
2022-08-22T12:35:16.175Z,2.40
2022-08-22T12:37:52.753Z,1.60
2022-08-22T12:40:48.042Z,2.13
2022-08-22T12:43:49.470Z,1.65
2022-08-22T12:46:52.938Z,1.65
2022-08-22T12:50:01.453Z,1.85
2022-08-22T12:57:35.659Z,1.65
2022-08-22T13:00:35.965Z,2.38
2022-08-22T13:03:35.258Z,1.45
2022-08-22T13:06:25.269Z,1.90
2022-08-22T13:08:55.333Z,1.88
2022-08-22T13:11:23.909Z,1.73
2022-08-22T13:19:07.408Z,1.40
2022-08-22T13:21:51.906Z,1.40
2022-08-22T13:24:52.340Z,1.40
2022-08-22T13:27:30.284Z,1.98
2022-08-22T13:30:07.732Z,1.65
2022-08-22T13:33:04.800Z,1.83
2022-08-22T13:36:05.016Z,1.42
2022-08-22T13:44:05.009Z,1.63
2022-08-22T13:46:37.434Z,1.77
2022-08-22T13:49:20.954Z,1.80
2022-08-22T13:52:03.076Z,1.45
2022-08-22T13:54:55.100Z,1.25
2022-08-22T13:57:36.933Z,1.20
2022-08-22T14:06:32.491Z,1.58
2022-08-22T14:08:50.814Z,1.83
2022-08-22T14:14:08.261Z,1.60
2022-08-22T14:19:41.049Z,1.02
2022-08-22T14:28:03.074Z,1.50
2022-08-22T14:30:54.606Z,1.27
2022-08-22T14:33:39.776Z,1.10
2022-08-22T14:36:21.874Z,1.35
2022-08-22T14:39:31.454Z,2.15
2022-08-22T14:42:15.046Z,1.50
2022-08-22T14:48:30.965Z,1.20
2022-08-22T14:51:04.377Z,1.30
2022-08-22T14:53:42.639Z,1.27
2022-08-22T14:56:15.898Z,1.45
2022-08-22T14:58:52.055Z,1.50
2022-08-22T15:01:25.444Z,1.13
2022-08-22T15:04:01.943Z,1.70
2022-08-22T15:12:40.877Z,1.90
2022-08-22T15:15:53.548Z,1.38
2022-08-22T15:18:31.274Z,1.48
2022-08-22T15:21:08.624Z,1.35
2022-08-22T15:23:45.061Z,1.50
2022-08-22T15:26:41.828Z,1.65
2022-08-22T15:32:46.594Z,1.48
2022-08-22T15:35:30.817Z,1.40
2022-08-22T15:38:06.604Z,1.17
2022-08-22T15:40:42.418Z,0.82
2022-08-22T15:43:22.356Z,1.30
2022-08-22T15:46:17.835Z,1.02
2022-08-22T15:49:07.081Z,1.33
2022-08-22T15:54:57.218Z,1.33
2022-08-22T15:57:36.051Z,1.23
2022-08-22T16:00:28.538Z,1.17
2022-08-22T16:03:16.026Z,1.40
2022-08-22T16:05:58.988Z,1.20
2022-08-22T16:08:33.221Z,1.02
2022-08-22T16:11:04.593Z,1.35
2022-08-22T16:19:27.214Z,1.48
2022-08-22T16:21:56.037Z,1.20
2022-08-22T16:24:24.234Z,1.52
2022-08-22T16:26:56.662Z,1.42
2022-08-22T16:29:30.932Z,1.35
2022-08-22T16:32:10.983Z,1.40
2022-08-22T16:34:40.750Z,1.35
2022-08-22T16:40:02.450Z,1.20
2022-08-22T16:42:44.727Z,1.40
2022-08-22T16:45:16.196Z,1.52
2022-08-22T16:48:01.118Z,1.30
2022-08-22T16:50:41.957Z,1.10
2022-08-22T16:53:32.528Z,1.15
2022-08-22T17:02:16.575Z,1.10
2022-08-22T17:05:08.718Z,1.25
2022-08-22T17:08:01.932Z,1.67
2022-08-22T17:10:57.517Z,1.27
2022-08-22T17:13:59.029Z,1.20
2022-08-22T17:16:31.477Z,1.30
2022-08-22T17:24:52.464Z,1.10
2022-08-22T17:27:41.977Z,1.05
2022-08-22T17:30:23.851Z,1.20
2022-08-22T17:33:24.765Z,0.98
2022-08-22T17:36:26.277Z,1.10
2022-08-22T17:39:05.183Z,1.33
2022-08-22T17:46:25.961Z,1.95
2022-08-22T17:49:12.092Z,1.05
2022-08-22T17:51:48.649Z,0.90
2022-08-22T17:54:22.854Z,1.10
2022-08-22T17:57:05.850Z,1.38
2022-08-22T18:00:12.507Z,1.15
2022-08-22T18:11:56.081Z,1.67
2022-08-22T18:14:42.526Z,1.17
2022-08-22T18:17:37.357Z,1.63
2022-08-22T18:20:25.351Z,0.88
2022-08-22T18:23:00.670Z,1.55
2022-08-22T18:29:21.265Z,1.25
2022-08-22T18:32:32.318Z,0.98
2022-08-22T18:35:12.460Z,1.20
2022-08-22T18:37:52.379Z,1.38
2022-08-22T18:40:49.897Z,1.10
2022-08-22T18:43:24.001Z,1.33
2022-08-22T18:49:23.132Z,1.35
2022-08-22T18:52:05.965Z,1.10
2022-08-22T18:54:59.313Z,1.23
2022-08-22T18:58:04.715Z,1.17
2022-08-22T19:01:11.829Z,1.42
2022-08-22T19:04:02.859Z,1.05
2022-08-22T19:11:48.955Z,1.17
2022-08-22T19:14:56.102Z,1.10
2022-08-22T19:17:59.318Z,1.20
2022-08-22T19:20:58.222Z,1.25
2022-08-22T19:23:42.316Z,1.50
2022-08-22T19:26:25.628Z,1.10
2022-08-22T19:33:02.210Z,1.40
2022-08-22T19:35:45.651Z,0.90
2022-08-22T19:39:03.799Z,1.50
2022-08-22T19:41:44.205Z,1.30
2022-08-22T19:44:23.183Z,1.08
2022-08-22T19:47:12.481Z,1.00
2022-08-22T19:55:22.687Z,1.00
2022-08-22T19:58:02.538Z,1.20
2022-08-22T20:03:32.839Z,1.10
2022-08-22T20:06:40.692Z,0.98
2022-08-22T20:09:38.788Z,1.23
2022-08-22T20:17:25.964Z,1.38
2022-08-22T20:20:28.054Z,1.13
2022-08-22T20:23:23.766Z,1.20
2022-08-22T20:26:03.544Z,1.00
2022-08-22T20:28:44.973Z,0.95
2022-08-22T20:31:24.978Z,1.00
2022-08-22T20:33:59.207Z,0.93
2022-08-22T20:41:16.117Z,1.17
2022-08-22T20:44:03.112Z,1.08
2022-08-22T20:46:43.741Z,1.08
2022-08-22T20:49:23.177Z,1.65
2022-08-22T20:52:04.211Z,1.10
2022-08-22T20:54:41.632Z,1.33
2022-08-22T20:57:21.611Z,1.23
